sensor_id;sensor_type;location;lat;lon;timestamp;P1;durP1;ratioP1;P2;durP2;ratioP2
13197;SDS011;6664;52.514;13.440;2023-02-15T00:00:18;21.07;;;11.73;;
13197;SDS011;6664;52.514;13.440;2023-02-15T00:03:04;19.47;;;10.80;;
13197;SDS011;6664;52.514;13.440;2023-02-15T00:05:52;20.67;;;11.50;;
13197;SDS011;6664;52.514;13.440;2023-02-15T00:08:41;17.13;;;10.70;;
13197;SDS011;6664;52.514;13.440;2023-02-15T00:11:26;23.50;;;11.63;;
13197;SDS011;6664;52.514;13.440;2023-02-15T00:14:25;24.53;;;13.10;;
13197;SDS011;6664;52.514;13.440;2023-02-15T00:17:11;25.63;;;12.37;;
13197;SDS011;6664;52.514;13.440;2023-02-15T00:19:57;26.20;;;13.83;;
13197;SDS011;6664;52.514;13.440;2023-02-15T00:22:42;24.57;;;12.90;;
13197;SDS011;6664;52.514;13.440;2023-02-15T00:25:28;24.73;;;12.30;;
13197;SDS011;6664;52.514;13.440;2023-02-15T00:28:13;22.60;;;12.60;;
13197;SDS011;6664;52.514;13.440;2023-02-15T00:31:09;22.53;;;13.40;;
13197;SDS011;6664;52.514;13.440;2023-02-15T00:34:00;22.80;;;12.23;;
13197;SDS011;6664;52.514;13.440;2023-02-15T00:36:53;22.33;;;12.97;;
13197;SDS011;6664;52.514;13.440;2023-02-15T00:39:39;25.43;;;12.37;;
13197;SDS011;6664;52.514;13.440;2023-02-15T00:42:25;20.50;;;12.17;;
13197;SDS011;6664;52.514;13.440;2023-02-15T00:45:10;26.10;;;13.57;;
13197;SDS011;6664;52.514;13.440;2023-02-15T00:47:56;22.47;;;13.17;;
13197;SDS011;6664;52.514;13.440;2023-02-15T00:50:45;22.63;;;12.07;;
13197;SDS011;6664;52.514;13.440;2023-02-15T00:53:35;23.47;;;13.80;;
13197;SDS011;6664;52.514;13.440;2023-02-15T00:56:23;23.53;;;12.73;;
13197;SDS011;6664;52.514;13.440;2023-02-15T00:59:08;26.23;;;13.30;;
13197;SDS011;6664;52.514;13.440;2023-02-15T01:01:54;28.77;;;13.17;;
13197;SDS011;6664;52.514;13.440;2023-02-15T01:04:39;23.93;;;11.97;;
13197;SDS011;6664;52.514;13.440;2023-02-15T01:07:25;23.57;;;12.37;;
13197;SDS011;6664;52.514;13.440;2023-02-15T01:10:10;25.83;;;13.70;;
13197;SDS011;6664;52.514;13.440;2023-02-15T01:12:56;27.07;;;13.37;;
13197;SDS011;6664;52.514;13.440;2023-02-15T01:15:44;26.80;;;13.03;;
13197;SDS011;6664;52.514;13.440;2023-02-15T01:18:33;20.60;;;11.90;;
13197;SDS011;6664;52.514;13.440;2023-02-15T01:21:37;29.87;;;13.10;;
13197;SDS011;6664;52.514;13.440;2023-02-15T01:24:25;31.40;;;13.43;;
13197;SDS011;6664;52.514;13.440;2023-02-15T01:27:13;25.43;;;12.70;;
13197;SDS011;6664;52.514;13.440;2023-02-15T01:29:59;29.67;;;13.90;;
13197;SDS011;6664;52.514;13.440;2023-02-15T01:32:45;26.27;;;13.00;;
13197;SDS011;6664;52.514;13.440;2023-02-15T01:35:31;33.40;;;13.73;;
13197;SDS011;6664;52.514;13.440;2023-02-15T01:38:18;28.23;;;13.40;;
13197;SDS011;6664;52.514;13.440;2023-02-15T01:41:03;25.20;;;12.80;;
13197;SDS011;6664;52.514;13.440;2023-02-15T01:44:40;22.90;;;12.20;;
13197;SDS011;6664;52.514;13.440;2023-02-15T01:47:46;26.10;;;13.97;;
13197;SDS011;6664;52.514;13.440;2023-02-15T01:50:50;31.90;;;12.53;;
13197;SDS011;6664;52.514;13.440;2023-02-15T01:53:43;26.47;;;12.90;;
13197;SDS011;6664;52.514;13.440;2023-02-15T01:56:42;29.70;;;13.90;;
13197;SDS011;6664;52.514;13.440;2023-02-15T01:59:27;23.20;;;12.43;;
13197;SDS011;6664;52.514;13.440;2023-02-15T02:02:14;26.90;;;12.53;;
13197;SDS011;6664;52.514;13.440;2023-02-15T02:05:03;31.83;;;14.43;;
13197;SDS011;6664;52.514;13.440;2023-02-15T02:07:52;22.57;;;12.03;;
13197;SDS011;6664;52.514;13.440;2023-02-15T02:10:41;32.33;;;13.00;;
13197;SDS011;6664;52.514;13.440;2023-02-15T02:13:28;30.67;;;15.57;;
13197;SDS011;6664;52.514;13.440;2023-02-15T02:16:21;27.17;;;13.07;;
13197;SDS011;6664;52.514;13.440;2023-02-15T02:20:16;28.33;;;14.33;;
13197;SDS011;6664;52.514;13.440;2023-02-15T02:35:08;32.27;;;15.20;;
13197;SDS011;6664;52.514;13.440;2023-02-15T02:38:36;25.57;;;13.47;;
13197;SDS011;6664;52.514;13.440;2023-02-15T02:44:40;38.53;;;16.90;;
13197;SDS011;6664;52.514;13.440;2023-02-15T02:50:32;33.93;;;14.73;;
13197;SDS011;6664;52.514;13.440;2023-02-15T02:53:18;38.50;;;16.67;;
13197;SDS011;6664;52.514;13.440;2023-02-15T02:56:15;41.10;;;15.93;;
13197;SDS011;6664;52.514;13.440;2023-02-15T02:59:15;36.03;;;15.57;;
13197;SDS011;6664;52.514;13.440;2023-02-15T03:02:05;42.37;;;17.30;;
13197;SDS011;6664;52.514;13.440;2023-02-15T03:04:59;45.33;;;17.40;;
13197;SDS011;6664;52.514;13.440;2023-02-15T03:07:51;46.63;;;19.17;;
13197;SDS011;6664;52.514;13.440;2023-02-15T03:10:38;48.77;;;18.80;;
13197;SDS011;6664;52.514;13.440;2023-02-15T03:13:26;54.43;;;18.07;;
13197;SDS011;6664;52.514;13.440;2023-02-15T03:16:14;49.30;;;19.80;;
13197;SDS011;6664;52.514;13.440;2023-02-15T03:19:14;47.23;;;18.93;;
13197;SDS011;6664;52.514;13.440;2023-02-15T03:22:10;40.17;;;18.13;;
13197;SDS011;6664;52.514;13.440;2023-02-15T03:28:06;39.10;;;17.00;;
13197;SDS011;6664;52.514;13.440;2023-02-15T03:31:05;47.90;;;19.60;;
13197;SDS011;6664;52.514;13.440;2023-02-15T03:33:57;42.60;;;17.43;;
13197;SDS011;6664;52.514;13.440;2023-02-15T03:40:41;40.23;;;17.87;;
13197;SDS011;6664;52.514;13.440;2023-02-15T03:43:55;47.03;;;16.70;;
13197;SDS011;6664;52.514;13.440;2023-02-15T03:46:50;43.73;;;16.70;;
13197;SDS011;6664;52.514;13.440;2023-02-15T03:49:53;54.33;;;18.00;;
13197;SDS011;6664;52.514;13.440;2023-02-15T03:52:46;43.10;;;18.70;;
13197;SDS011;6664;52.514;13.440;2023-02-15T03:55:31;52.33;;;19.53;;
13197;SDS011;6664;52.514;13.440;2023-02-15T03:58:19;41.33;;;19.27;;
13197;SDS011;6664;52.514;13.440;2023-02-15T04:04:35;34.37;;;18.23;;
13197;SDS011;6664;52.514;13.440;2023-02-15T04:07:23;38.20;;;15.30;;
13197;SDS011;6664;52.514;13.440;2023-02-15T04:10:08;50.77;;;20.53;;
13197;SDS011;6664;52.514;13.440;2023-02-15T04:13:12;39.33;;;17.83;;
13197;SDS011;6664;52.514;13.440;2023-02-15T04:15:58;45.20;;;18.37;;
13197;SDS011;6664;52.514;13.440;2023-02-15T04:18:50;36.13;;;16.90;;
13197;SDS011;6664;52.514;13.440;2023-02-15T04:21:54;41.93;;;17.10;;
13197;SDS011;6664;52.514;13.440;2023-02-15T04:24:58;35.17;;;15.83;;
13197;SDS011;6664;52.514;13.440;2023-02-15T04:27:56;37.27;;;17.70;;
13197;SDS011;6664;52.514;13.440;2023-02-15T04:30:42;41.97;;;16.40;;
13197;SDS011;6664;52.514;13.440;2023-02-15T04:33:27;47.17;;;18.10;;
13197;SDS011;6664;52.514;13.440;2023-02-15T04:36:12;41.37;;;17.50;;
13197;SDS011;6664;52.514;13.440;2023-02-15T04:38:58;35.67;;;15.83;;
13197;SDS011;6664;52.514;13.440;2023-02-15T04:41:44;45.27;;;16.43;;
13197;SDS011;6664;52.514;13.440;2023-02-15T04:44:29;44.63;;;16.90;;
13197;SDS011;6664;52.514;13.440;2023-02-15T04:47:17;36.63;;;15.90;;
13197;SDS011;6664;52.514;13.440;2023-02-15T04:50:03;43.20;;;16.00;;
13197;SDS011;6664;52.514;13.440;2023-02-15T04:52:49;39.63;;;17.93;;
13197;SDS011;6664;52.514;13.440;2023-02-15T04:55:36;40.43;;;17.27;;
13197;SDS011;6664;52.514;13.440;2023-02-15T04:58:22;42.53;;;16.57;;
13197;SDS011;6664;52.514;13.440;2023-02-15T05:01:08;34.17;;;16.47;;
13197;SDS011;6664;52.514;13.440;2023-02-15T05:03:54;40.30;;;17.63;;
13197;SDS011;6664;52.514;13.440;2023-02-15T05:06:40;42.63;;;16.80;;
13197;SDS011;6664;52.514;13.440;2023-02-15T05:09:26;34.03;;;14.77;;
13197;SDS011;6664;52.514;13.440;2023-02-15T05:12:13;42.93;;;16.30;;
13197;SDS011;6664;52.514;13.440;2023-02-15T05:14:59;40.23;;;16.00;;
13197;SDS011;6664;52.514;13.440;2023-02-15T05:17:45;38.93;;;16.43;;
13197;SDS011;6664;52.514;13.440;2023-02-15T05:20:30;31.13;;;15.40;;
13197;SDS011;6664;52.514;13.440;2023-02-15T05:23:16;39.67;;;16.73;;
13197;SDS011;6664;52.514;13.440;2023-02-15T05:26:02;37.47;;;16.10;;
13197;SDS011;6664;52.514;13.440;2023-02-15T05:29:06;48.77;;;17.03;;
13197;SDS011;6664;52.514;13.440;2023-02-15T05:31:54;42.97;;;18.63;;
13197;SDS011;6664;52.514;13.440;2023-02-15T05:34:40;46.30;;;17.27;;
13197;SDS011;6664;52.514;13.440;2023-02-15T05:37:25;33.17;;;15.27;;
13197;SDS011;6664;52.514;13.440;2023-02-15T05:40:13;38.80;;;16.20;;
13197;SDS011;6664;52.514;13.440;2023-02-15T05:42:58;35.37;;;16.30;;
13197;SDS011;6664;52.514;13.440;2023-02-15T05:45:49;36.53;;;16.40;;
13197;SDS011;6664;52.514;13.440;2023-02-15T05:48:36;43.57;;;16.80;;
13197;SDS011;6664;52.514;13.440;2023-02-15T05:51:24;46.87;;;19.23;;
13197;SDS011;6664;52.514;13.440;2023-02-15T05:54:09;35.70;;;16.43;;
13197;SDS011;6664;52.514;13.440;2023-02-15T05:56:57;38.03;;;17.70;;
13197;SDS011;6664;52.514;13.440;2023-02-15T05:59:42;42.17;;;17.37;;
13197;SDS011;6664;52.514;13.440;2023-02-15T06:02:28;44.73;;;16.53;;
13197;SDS011;6664;52.514;13.440;2023-02-15T06:05:16;42.40;;;17.03;;
13197;SDS011;6664;52.514;13.440;2023-02-15T06:08:01;37.10;;;16.83;;
13197;SDS011;6664;52.514;13.440;2023-02-15T06:10:50;47.27;;;17.33;;
13197;SDS011;6664;52.514;13.440;2023-02-15T06:13:35;42.90;;;17.90;;
13197;SDS011;6664;52.514;13.440;2023-02-15T06:16:22;42.70;;;16.10;;
13197;SDS011;6664;52.514;13.440;2023-02-15T06:19:08;37.73;;;18.00;;
13197;SDS011;6664;52.514;13.440;2023-02-15T06:21:57;41.47;;;16.07;;
13197;SDS011;6664;52.514;13.440;2023-02-15T06:24:43;43.97;;;16.43;;
13197;SDS011;6664;52.514;13.440;2023-02-15T06:27:29;44.00;;;17.03;;
13197;SDS011;6664;52.514;13.440;2023-02-15T06:30:14;31.40;;;15.53;;
13197;SDS011;6664;52.514;13.440;2023-02-15T06:33:00;33.47;;;15.03;;
13197;SDS011;6664;52.514;13.440;2023-02-15T06:35:46;39.07;;;17.63;;
13197;SDS011;6664;52.514;13.440;2023-02-15T06:38:32;33.53;;;17.00;;
13197;SDS011;6664;52.514;13.440;2023-02-15T06:41:17;37.63;;;16.30;;
13197;SDS011;6664;52.514;13.440;2023-02-15T06:44:03;41.50;;;17.13;;
13197;SDS011;6664;52.514;13.440;2023-02-15T06:46:49;45.93;;;17.70;;
13197;SDS011;6664;52.514;13.440;2023-02-15T06:49:35;39.90;;;16.93;;
13197;SDS011;6664;52.514;13.440;2023-02-15T06:52:20;40.90;;;15.83;;
13197;SDS011;6664;52.514;13.440;2023-02-15T06:55:05;50.00;;;18.00;;
13197;SDS011;6664;52.514;13.440;2023-02-15T06:57:54;40.10;;;17.50;;
13197;SDS011;6664;52.514;13.440;2023-02-15T07:00:39;42.10;;;17.70;;
13197;SDS011;6664;52.514;13.440;2023-02-15T07:03:25;54.07;;;17.30;;
13197;SDS011;6664;52.514;13.440;2023-02-15T07:06:10;41.13;;;15.77;;
13197;SDS011;6664;52.514;13.440;2023-02-15T07:08:56;42.70;;;15.90;;
13197;SDS011;6664;52.514;13.440;2023-02-15T07:11:41;57.23;;;18.17;;
13197;SDS011;6664;52.514;13.440;2023-02-15T07:14:48;46.00;;;17.67;;
13197;SDS011;6664;52.514;13.440;2023-02-15T07:17:34;47.90;;;18.43;;
13197;SDS011;6664;52.514;13.440;2023-02-15T07:20:23;45.90;;;16.40;;
13197;SDS011;6664;52.514;13.440;2023-02-15T07:23:11;37.77;;;16.90;;
13197;SDS011;6664;52.514;13.440;2023-02-15T07:25:57;47.00;;;17.80;;
13197;SDS011;6664;52.514;13.440;2023-02-15T07:28:44;41.63;;;18.03;;
13197;SDS011;6664;52.514;13.440;2023-02-15T07:31:30;38.03;;;16.93;;
13197;SDS011;6664;52.514;13.440;2023-02-15T07:34:15;45.63;;;18.67;;
13197;SDS011;6664;52.514;13.440;2023-02-15T07:37:01;41.47;;;15.27;;
13197;SDS011;6664;52.514;13.440;2023-02-15T07:39:47;33.87;;;15.10;;
13197;SDS011;6664;52.514;13.440;2023-02-15T07:42:33;45.23;;;16.80;;
13197;SDS011;6664;52.514;13.440;2023-02-15T07:45:18;34.87;;;15.90;;
13197;SDS011;6664;52.514;13.440;2023-02-15T07:48:06;39.27;;;15.80;;
13197;SDS011;6664;52.514;13.440;2023-02-15T07:50:52;33.97;;;15.17;;
13197;SDS011;6664;52.514;13.440;2023-02-15T07:53:38;32.00;;;14.30;;
13197;SDS011;6664;52.514;13.440;2023-02-15T07:56:24;31.63;;;14.33;;
13197;SDS011;6664;52.514;13.440;2023-02-15T07:59:09;36.50;;;15.33;;
13197;SDS011;6664;52.514;13.440;2023-02-15T08:01:55;30.30;;;15.40;;
13197;SDS011;6664;52.514;13.440;2023-02-15T08:05:01;28.37;;;13.63;;
13197;SDS011;6664;52.514;13.440;2023-02-15T08:07:46;47.23;;;15.70;;
13197;SDS011;6664;52.514;13.440;2023-02-15T08:10:32;32.13;;;14.53;;
13197;SDS011;6664;52.514;13.440;2023-02-15T08:13:37;33.50;;;15.37;;
13197;SDS011;6664;52.514;13.440;2023-02-15T08:19:28;35.30;;;16.50;;
13197;SDS011;6664;52.514;13.440;2023-02-15T08:22:14;33.27;;;16.50;;
13197;SDS011;6664;52.514;13.440;2023-02-15T08:25:00;33.57;;;16.27;;
13197;SDS011;6664;52.514;13.440;2023-02-15T08:27:46;39.20;;;16.63;;
13197;SDS011;6664;52.514;13.440;2023-02-15T08:30:31;34.40;;;15.40;;
13197;SDS011;6664;52.514;13.440;2023-02-15T08:33:19;41.30;;;15.23;;
13197;SDS011;6664;52.514;13.440;2023-02-15T08:36:06;40.03;;;15.60;;
13197;SDS011;6664;52.514;13.440;2023-02-15T08:38:59;42.07;;;16.27;;
13197;SDS011;6664;52.514;13.440;2023-02-15T08:41:47;33.60;;;15.47;;
13197;SDS011;6664;52.514;13.440;2023-02-15T08:44:35;39.90;;;17.20;;
13197;SDS011;6664;52.514;13.440;2023-02-15T08:47:23;43.10;;;16.47;;
13197;SDS011;6664;52.514;13.440;2023-02-15T08:50:09;34.93;;;15.07;;
13197;SDS011;6664;52.514;13.440;2023-02-15T08:52:56;37.20;;;16.43;;
13197;SDS011;6664;52.514;13.440;2023-02-15T08:55:42;39.13;;;15.63;;
13197;SDS011;6664;52.514;13.440;2023-02-15T08:58:28;30.93;;;14.70;;
13197;SDS011;6664;52.514;13.440;2023-02-15T09:01:20;34.57;;;14.57;;
13197;SDS011;6664;52.514;13.440;2023-02-15T09:04:07;33.10;;;17.07;;
13197;SDS011;6664;52.514;13.440;2023-02-15T09:06:57;35.03;;;15.30;;
13197;SDS011;6664;52.514;13.440;2023-02-15T09:09:43;34.47;;;14.73;;
13197;SDS011;6664;52.514;13.440;2023-02-15T09:12:30;34.60;;;14.10;;
13197;SDS011;6664;52.514;13.440;2023-02-15T09:15:17;31.27;;;15.40;;
13197;SDS011;6664;52.514;13.440;2023-02-15T09:18:03;28.50;;;15.30;;
13197;SDS011;6664;52.514;13.440;2023-02-15T09:20:51;27.07;;;13.57;;
13197;SDS011;6664;52.514;13.440;2023-02-15T09:23:36;32.93;;;15.83;;
13197;SDS011;6664;52.514;13.440;2023-02-15T09:26:23;32.13;;;15.33;;
13197;SDS011;6664;52.514;13.440;2023-02-15T09:29:09;36.90;;;15.97;;
13197;SDS011;6664;52.514;13.440;2023-02-15T09:31:56;31.50;;;13.13;;
13197;SDS011;6664;52.514;13.440;2023-02-15T09:34:41;27.30;;;13.50;;
13197;SDS011;6664;52.514;13.440;2023-02-15T09:37:27;29.73;;;14.03;;
13197;SDS011;6664;52.514;13.440;2023-02-15T09:40:13;33.93;;;13.60;;
13197;SDS011;6664;52.514;13.440;2023-02-15T09:43:05;36.13;;;14.53;;
13197;SDS011;6664;52.514;13.440;2023-02-15T09:49:17;31.27;;;14.67;;
13197;SDS011;6664;52.514;13.440;2023-02-15T10:02:02;31.00;;;14.77;;
13197;SDS011;6664;52.514;13.440;2023-02-15T10:08:44;27.03;;;13.47;;
13197;SDS011;6664;52.514;13.440;2023-02-15T10:18:15;26.93;;;12.03;;
13197;SDS011;6664;52.514;13.440;2023-02-15T10:21:29;23.27;;;12.37;;
13197;SDS011;6664;52.514;13.440;2023-02-15T10:24:54;21.73;;;12.20;;
13197;SDS011;6664;52.514;13.440;2023-02-15T10:27:43;24.20;;;12.60;;
13197;SDS011;6664;52.514;13.440;2023-02-15T10:45:32;23.57;;;11.57;;
13197;SDS011;6664;52.514;13.440;2023-02-15T10:52:07;23.90;;;11.07;;
13197;SDS011;6664;52.514;13.440;2023-02-15T11:07:41;26.07;;;14.00;;
13197;SDS011;6664;52.514;13.440;2023-02-15T11:10:41;32.50;;;11.30;;
13197;SDS011;6664;52.514;13.440;2023-02-15T11:13:38;26.57;;;11.33;;
13197;SDS011;6664;52.514;13.440;2023-02-15T11:16:30;24.77;;;12.13;;
13197;SDS011;6664;52.514;13.440;2023-02-15T11:19:30;23.57;;;12.03;;
13197;SDS011;6664;52.514;13.440;2023-02-15T11:22:19;22.20;;;12.63;;
13197;SDS011;6664;52.514;13.440;2023-02-15T11:25:14;26.70;;;11.97;;
13197;SDS011;6664;52.514;13.440;2023-02-15T11:28:10;22.60;;;11.97;;
13197;SDS011;6664;52.514;13.440;2023-02-15T11:31:12;19.90;;;11.43;;
13197;SDS011;6664;52.514;13.440;2023-02-15T11:34:03;19.20;;;11.40;;
13197;SDS011;6664;52.514;13.440;2023-02-15T11:37:00;19.23;;;10.67;;
13197;SDS011;6664;52.514;13.440;2023-02-15T11:39:52;17.80;;;11.10;;
13197;SDS011;6664;52.514;13.440;2023-02-15T11:42:41;17.23;;;10.93;;
13197;SDS011;6664;52.514;13.440;2023-02-15T11:48:15;21.10;;;10.70;;
13197;SDS011;6664;52.514;13.440;2023-02-15T11:51:01;23.40;;;11.80;;
13197;SDS011;6664;52.514;13.440;2023-02-15T11:53:50;22.50;;;12.27;;
13197;SDS011;6664;52.514;13.440;2023-02-15T11:56:36;20.73;;;12.10;;
13197;SDS011;6664;52.514;13.440;2023-02-15T11:59:27;20.23;;;11.90;;
13197;SDS011;6664;52.514;13.440;2023-02-15T12:02:20;23.70;;;11.73;;
13197;SDS011;6664;52.514;13.440;2023-02-15T12:05:09;20.47;;;10.37;;
13197;SDS011;6664;52.514;13.440;2023-02-15T12:08:01;20.20;;;11.23;;
13197;SDS011;6664;52.514;13.440;2023-02-15T12:11:05;21.53;;;12.00;;
13197;SDS011;6664;52.514;13.440;2023-02-15T12:14:06;19.53;;;9.87;;
13197;SDS011;6664;52.514;13.440;2023-02-15T12:17:00;26.60;;;11.73;;
13197;SDS011;6664;52.514;13.440;2023-02-15T12:19:50;22.87;;;10.17;;
13197;SDS011;6664;52.514;13.440;2023-02-15T12:22:37;18.73;;;10.60;;
13197;SDS011;6664;52.514;13.440;2023-02-15T12:25:29;21.90;;;10.53;;
13197;SDS011;6664;52.514;13.440;2023-02-15T12:28:32;16.97;;;9.90;;
13197;SDS011;6664;52.514;13.440;2023-02-15T12:31:30;18.17;;;10.60;;
13197;SDS011;6664;52.514;13.440;2023-02-15T12:34:31;21.80;;;10.03;;
13197;SDS011;6664;52.514;13.440;2023-02-15T12:37:25;18.00;;;10.77;;
13197;SDS011;6664;52.514;13.440;2023-02-15T12:40:20;17.40;;;10.50;;
13197;SDS011;6664;52.514;13.440;2023-02-15T12:43:27;20.13;;;10.70;;
13197;SDS011;6664;52.514;13.440;2023-02-15T12:46:21;19.50;;;9.90;;
13197;SDS011;6664;52.514;13.440;2023-02-15T12:51:58;21.50;;;10.70;;
13197;SDS011;6664;52.514;13.440;2023-02-15T12:54:51;17.53;;;10.93;;
13197;SDS011;6664;52.514;13.440;2023-02-15T12:57:36;17.47;;;9.80;;
13197;SDS011;6664;52.514;13.440;2023-02-15T13:00:26;17.00;;;10.10;;
13197;SDS011;6664;52.514;13.440;2023-02-15T13:03:18;25.43;;;10.47;;
13197;SDS011;6664;52.514;13.440;2023-02-15T13:06:05;21.50;;;10.63;;
13197;SDS011;6664;52.514;13.440;2023-02-15T13:08:53;18.10;;;10.57;;
13197;SDS011;6664;52.514;13.440;2023-02-15T13:11:42;23.40;;;10.50;;
13197;SDS011;6664;52.514;13.440;2023-02-15T13:14:31;25.67;;;11.20;;
13197;SDS011;6664;52.514;13.440;2023-02-15T13:17:18;20.50;;;11.50;;
13197;SDS011;6664;52.514;13.440;2023-02-15T13:20:20;17.67;;;10.50;;
13197;SDS011;6664;52.514;13.440;2023-02-15T13:23:24;18.30;;;9.97;;
13197;SDS011;6664;52.514;13.440;2023-02-15T13:26:15;16.83;;;11.13;;
13197;SDS011;6664;52.514;13.440;2023-02-15T13:29:06;18.17;;;9.90;;
13197;SDS011;6664;52.514;13.440;2023-02-15T13:31:57;16.10;;;9.73;;
13197;SDS011;6664;52.514;13.440;2023-02-15T13:34:49;16.17;;;8.93;;
13197;SDS011;6664;52.514;13.440;2023-02-15T13:47:02;19.53;;;10.77;;
13197;SDS011;6664;52.514;13.440;2023-02-15T13:53:02;17.27;;;9.90;;
13197;SDS011;6664;52.514;13.440;2023-02-15T13:56:04;14.23;;;10.13;;
13197;SDS011;6664;52.514;13.440;2023-02-15T14:08:40;15.80;;;10.83;;
13197;SDS011;6664;52.514;13.440;2023-02-15T14:25:02;22.03;;;11.40;;
13197;SDS011;6664;52.514;13.440;2023-02-15T14:28:09;20.93;;;11.70;;
13197;SDS011;6664;52.514;13.440;2023-02-15T14:31:11;15.87;;;9.67;;
13197;SDS011;6664;52.514;13.440;2023-02-15T14:33:59;19.07;;;10.20;;
13197;SDS011;6664;52.514;13.440;2023-02-15T14:36:47;17.40;;;10.63;;
13197;SDS011;6664;52.514;13.440;2023-02-15T14:43:00;15.63;;;10.50;;
13197;SDS011;6664;52.514;13.440;2023-02-15T14:49:05;18.43;;;10.73;;
13197;SDS011;6664;52.514;13.440;2023-02-15T14:57:33;19.07;;;11.50;;
13197;SDS011;6664;52.514;13.440;2023-02-15T15:00:28;20.97;;;10.87;;
13197;SDS011;6664;52.514;13.440;2023-02-15T15:03:23;16.20;;;9.47;;
13197;SDS011;6664;52.514;13.440;2023-02-15T15:06:23;19.40;;;10.37;;
13197;SDS011;6664;52.514;13.440;2023-02-15T15:09:27;15.87;;;9.93;;
13197;SDS011;6664;52.514;13.440;2023-02-15T15:15:32;20.00;;;10.30;;
13197;SDS011;6664;52.514;13.440;2023-02-15T15:24:56;17.67;;;10.13;;
13197;SDS011;6664;52.514;13.440;2023-02-15T15:28:00;21.07;;;10.03;;
13197;SDS011;6664;52.514;13.440;2023-02-15T15:46:24;13.97;;;8.80;;
13197;SDS011;6664;52.514;13.440;2023-02-15T15:49:26;18.00;;;8.93;;
13197;SDS011;6664;52.514;13.440;2023-02-15T15:52:16;17.60;;;9.40;;
13197;SDS011;6664;52.514;13.440;2023-02-15T15:55:14;23.43;;;8.63;;
13197;SDS011;6664;52.514;13.440;2023-02-15T15:58:05;22.63;;;9.07;;
13197;SDS011;6664;52.514;13.440;2023-02-15T16:01:03;19.37;;;10.13;;
13197;SDS011;6664;52.514;13.440;2023-02-15T16:03:54;16.53;;;9.63;;
13197;SDS011;6664;52.514;13.440;2023-02-15T16:06:41;23.90;;;9.20;;
13197;SDS011;6664;52.514;13.440;2023-02-15T16:09:30;20.63;;;10.30;;
13197;SDS011;6664;52.514;13.440;2023-02-15T16:12:15;19.67;;;9.50;;
13197;SDS011;6664;52.514;13.440;2023-02-15T16:15:15;21.20;;;8.67;;
13197;SDS011;6664;52.514;13.440;2023-02-15T16:18:10;15.77;;;9.63;;
13197;SDS011;6664;52.514;13.440;2023-02-15T16:20:59;19.90;;;9.87;;
13197;SDS011;6664;52.514;13.440;2023-02-15T16:23:54;16.90;;;9.33;;
13197;SDS011;6664;52.514;13.440;2023-02-15T16:27:07;25.93;;;9.20;;
13197;SDS011;6664;52.514;13.440;2023-02-15T16:33:09;28.80;;;10.27;;
13197;SDS011;6664;52.514;13.440;2023-02-15T16:35:57;30.43;;;14.17;;
13197;SDS011;6664;52.514;13.440;2023-02-15T16:41:37;16.50;;;9.03;;
13197;SDS011;6664;52.514;13.440;2023-02-15T16:44:30;16.13;;;8.70;;
13197;SDS011;6664;52.514;13.440;2023-02-15T16:47:19;22.27;;;9.00;;
13197;SDS011;6664;52.514;13.440;2023-02-15T16:50:18;16.83;;;8.77;;
13197;SDS011;6664;52.514;13.440;2023-02-15T16:53:14;17.50;;;8.80;;
13197;SDS011;6664;52.514;13.440;2023-02-15T16:56:06;22.60;;;10.20;;
13197;SDS011;6664;52.514;13.440;2023-02-15T16:58:53;17.80;;;8.90;;
13197;SDS011;6664;52.514;13.440;2023-02-15T17:01:42;14.73;;;8.70;;
13197;SDS011;6664;52.514;13.440;2023-02-15T17:04:30;15.13;;;7.50;;
13197;SDS011;6664;52.514;13.440;2023-02-15T17:07:22;11.70;;;7.93;;
13197;SDS011;6664;52.514;13.440;2023-02-15T17:13:15;16.43;;;9.93;;
13197;SDS011;6664;52.514;13.440;2023-02-15T17:18:48;16.50;;;9.20;;
13197;SDS011;6664;52.514;13.440;2023-02-15T17:21:37;15.47;;;10.00;;
13197;SDS011;6664;52.514;13.440;2023-02-15T17:24:37;16.00;;;8.70;;
13197;SDS011;6664;52.514;13.440;2023-02-15T17:27:27;21.10;;;9.97;;
13197;SDS011;6664;52.514;13.440;2023-02-15T17:30:23;23.70;;;10.17;;
13197;SDS011;6664;52.514;13.440;2023-02-15T17:33:22;20.17;;;11.10;;
13197;SDS011;6664;52.514;13.440;2023-02-15T17:36:21;23.43;;;9.63;;
13197;SDS011;6664;52.514;13.440;2023-02-15T17:39:20;21.67;;;8.53;;
13197;SDS011;6664;52.514;13.440;2023-02-15T17:42:09;23.50;;;11.20;;
13197;SDS011;6664;52.514;13.440;2023-02-15T17:44:55;14.73;;;9.60;;
13197;SDS011;6664;52.514;13.440;2023-02-15T17:47:41;16.33;;;9.43;;
13197;SDS011;6664;52.514;13.440;2023-02-15T17:50:27;20.93;;;10.30;;
13197;SDS011;6664;52.514;13.440;2023-02-15T17:53:18;24.17;;;11.20;;
13197;SDS011;6664;52.514;13.440;2023-02-15T17:56:04;20.23;;;10.50;;
13197;SDS011;6664;52.514;13.440;2023-02-15T17:58:54;22.50;;;11.80;;
13197;SDS011;6664;52.514;13.440;2023-02-15T18:01:43;17.47;;;10.10;;
13197;SDS011;6664;52.514;13.440;2023-02-15T18:04:50;18.80;;;10.50;;
13197;SDS011;6664;52.514;13.440;2023-02-15T18:07:54;28.30;;;10.67;;
13197;SDS011;6664;52.514;13.440;2023-02-15T18:10:58;22.53;;;12.07;;
13197;SDS011;6664;52.514;13.440;2023-02-15T18:14:07;20.60;;;11.00;;
13197;SDS011;6664;52.514;13.440;2023-02-15T18:16:53;20.90;;;10.60;;
13197;SDS011;6664;52.514;13.440;2023-02-15T18:19:40;27.60;;;12.07;;
13197;SDS011;6664;52.514;13.440;2023-02-15T18:22:45;21.30;;;11.70;;
13197;SDS011;6664;52.514;13.440;2023-02-15T18:25:31;21.10;;;10.23;;
13197;SDS011;6664;52.514;13.440;2023-02-15T18:28:17;26.80;;;11.10;;
13197;SDS011;6664;52.514;13.440;2023-02-15T18:31:05;23.17;;;11.60;;
13197;SDS011;6664;52.514;13.440;2023-02-15T18:33:57;21.20;;;11.80;;
13197;SDS011;6664;52.514;13.440;2023-02-15T18:36:44;18.23;;;12.20;;
13197;SDS011;6664;52.514;13.440;2023-02-15T18:39:35;20.60;;;11.77;;
13197;SDS011;6664;52.514;13.440;2023-02-15T18:48:01;17.50;;;11.93;;
13197;SDS011;6664;52.514;13.440;2023-02-15T18:50:48;21.53;;;9.23;;
13197;SDS011;6664;52.514;13.440;2023-02-15T18:53:35;16.47;;;10.07;;
13197;SDS011;6664;52.514;13.440;2023-02-15T18:56:21;22.53;;;11.77;;
13197;SDS011;6664;52.514;13.440;2023-02-15T18:59:17;26.67;;;16.53;;
13197;SDS011;6664;52.514;13.440;2023-02-15T19:02:05;20.90;;;12.00;;
13197;SDS011;6664;52.514;13.440;2023-02-15T19:05:01;26.30;;;16.30;;
13197;SDS011;6664;52.514;13.440;2023-02-15T19:07:47;21.73;;;12.17;;
13197;SDS011;6664;52.514;13.440;2023-02-15T19:10:33;30.10;;;12.10;;
13197;SDS011;6664;52.514;13.440;2023-02-15T19:13:22;20.37;;;11.00;;
13197;SDS011;6664;52.514;13.440;2023-02-15T19:16:12;17.93;;;10.20;;
13197;SDS011;6664;52.514;13.440;2023-02-15T19:19:22;28.27;;;12.07;;
13197;SDS011;6664;52.514;13.440;2023-02-15T19:22:15;20.53;;;11.10;;
13197;SDS011;6664;52.514;13.440;2023-02-15T19:25:07;23.27;;;11.73;;
13197;SDS011;6664;52.514;13.440;2023-02-15T19:27:58;23.47;;;11.77;;
13197;SDS011;6664;52.514;13.440;2023-02-15T19:30:44;21.67;;;11.73;;
13197;SDS011;6664;52.514;13.440;2023-02-15T19:33:50;23.30;;;12.30;;
13197;SDS011;6664;52.514;13.440;2023-02-15T19:36:35;18.67;;;11.63;;
13197;SDS011;6664;52.514;13.440;2023-02-15T19:39:22;25.63;;;13.57;;
13197;SDS011;6664;52.514;13.440;2023-02-15T19:42:20;20.87;;;12.53;;
13197;SDS011;6664;52.514;13.440;2023-02-15T19:45:21;22.70;;;12.07;;